Time;durP1;ratioP1;P1;durP2;ratioP2;P2;SDS_P1;SDS_P2;PMS_P1;PMS_P2;Temp;Humidity;BMP_temperature;BMP_pressure;BME280_temperature;BME280_humidity;BME280_pressure;Samples;Min_cycle;Max_cycle;Signal;HPM_P1;HPM_P2
2022/05/29 00:01:02;;;;;;;10.75;4.05;;;18.60;43.90;;;;;;5076202;28;20050;-61
2022/05/29 00:03:30;;;;;;;5.95;3.65;;;18.60;45.20;;;;;;5081350;28;20469;-65
2022/05/29 00:06:00;;;;;;;9.38;2.83;;;18.60;46.00;;;;;;5077529;28;20025;-61
2022/05/29 00:08:32;;;;;;;6.35;2.83;;;18.60;45.20;;;;;;5076695;28;20024;-61
2022/05/29 00:11:02;;;;;;;5.45;3.25;;;18.50;45.00;;;;;;5090294;28;20069;-62
2022/05/29 00:13:28;;;;;;;6.82;3.03;;;18.40;47.00;;;;;;5061838;28;20093;-60
2022/05/29 00:15:55;;;;;;;9.73;3.00;;;18.40;48.10;;;;;;5077755;28;20020;-61
2022/05/29 00:18:25;;;;;;;6.45;3.22;;;18.30;49.30;;;;;;5088721;28;20032;-60
2022/05/29 00:20:58;;;;;;;8.80;3.60;;;18.30;50.10;;;;;;5083130;28;20101;-60
2022/05/29 00:23:29;;;;;;;8.55;3.40;;;18.20;50.60;;;;;;5077063;28;20024;-60
2022/05/29 00:25:58;;;;;;;6.43;3.45;;;18.20;51.00;;;;;;5061265;28;20012;-62
2022/05/29 00:28:25;;;;;;;8.68;3.42;;;18.10;51.40;;;;;;5084882;28;20020;-62
2022/05/29 00:30:52;;;;;;;6.63;3.40;;;18.10;51.60;;;;;;5084694;28;20077;-62
2022/05/29 00:33:17;;;;;;;8.27;3.53;;;18.00;51.80;;;;;;5066391;28;20032;-62
2022/05/29 00:35:43;;;;;;;8.77;3.55;;;17.90;51.90;;;;;;5083701;28;20067;-62
2022/05/29 00:38:11;;;;;;;7.85;3.72;;;17.90;52.30;;;;;;5084085;28;20023;-61
2022/05/29 00:40:48;;;;;;;7.65;3.10;;;17.80;52.40;;;;;;5084802;28;20039;-61
2022/05/29 00:43:14;;;;;;;7.20;3.20;;;17.80;52.60;;;;;;5084948;28;20062;-62
2022/05/29 00:45:54;;;;;;;6.00;3.60;;;17.80;52.60;;;;;;5065683;28;20283;-63
2022/05/29 00:48:20;;;;;;;8.88;2.67;;;17.80;53.20;;;;;;5084060;28;20020;-61
2022/05/29 00:50:47;;;;;;;6.60;3.00;;;17.70;52.40;;;;;;5083800;28;20012;-62
2022/05/29 00:53:14;;;;;;;6.43;2.80;;;17.70;52.40;;;;;;5084018;28;20525;-60
2022/05/29 00:55:45;;;;;;;9.02;3.08;;;17.60;52.60;;;;;;5084161;28;20028;-61
2022/05/29 00:58:11;;;;;;;6.78;2.95;;;17.50;53.10;;;;;;5083380;28;20493;-61
2022/05/29 01:00:37;;;;;;;5.32;2.67;;;17.40;53.50;;;;;;5083626;28;20466;-62
2022/05/29 01:03:04;;;;;;;7.30;3.05;;;17.20;53.80;;;;;;5084523;28;20070;-61
2022/05/29 01:05:31;;;;;;;4.97;3.17;;;17.10;54.00;;;;;;5081925;28;20016;-61
2022/05/29 01:08:15;;;;;;;6.07;2.80;;;17.10;54.20;;;;;;5084750;28;20103;-62
2022/05/29 01:10:44;;;;;;;;;;;17.00;54.30;;;;;;5084390;28;20089;-61
2022/05/29 01:13:31;;;;;;;5.78;2.60;;;16.90;54.30;;;;;;5065191;28;19904;-61
2022/05/29 01:16:17;;;;;;;4.90;2.45;;;16.90;54.20;;;;;;5084262;28;20032;-61
2022/05/29 01:19:20;;;;;;;4.10;2.35;;;16.90;54.30;;;;;;5082306;28;20548;-61
2022/05/29 01:22:10;;;;;;;7.80;2.60;;;16.80;54.50;;;;;;5083161;28;20032;-61
2022/05/29 01:24:57;;;;;;;7.45;2.85;;;16.70;54.50;;;;;;5062221;28;20100;-61
2022/05/29 01:27:40;;;;;;;5.10;2.60;;;16.70;54.40;;;;;;5084590;28;20020;-60
2022/05/29 01:30:18;;;;;;;10.45;2.95;;;16.70;54.40;;;;;;5082858;28;20095;-61
2022/05/29 01:32:57;;;;;;;5.00;2.47;;;16.70;54.10;;;;;;5082471;28;20027;-61
2022/05/29 01:35:44;;;;;;;4.05;2.60;;;16.70;54.00;;;;;;5084189;28;20020;-59
2022/05/29 01:38:45;;;;;;;5.82;2.70;;;16.70;54.10;;;;;;5081884;28;20028;-61
2022/05/29 01:41:35;;;;;;;7.63;2.75;;;16.70;54.10;;;;;;5064694;28;20600;-61
2022/05/29 01:44:26;;;;;;;5.07;2.55;;;16.60;54.60;;;;;;5070602;28;20028;-61
2022/05/29 01:46:56;;;;;;;7.10;2.72;;;16.60;54.80;;;;;;5080716;28;20021;-61
2022/05/29 01:49:34;;;;;;;11.65;2.60;;;16.60;55.00;;;;;;5084130;28;20027;-60
2022/05/29 01:52:06;;;;;;;5.75;2.45;;;16.50;55.50;;;;;;5083542;28;20023;-61
2022/05/29 01:54:37;;;;;;;11.18;2.53;;;16.50;55.50;;;;;;5082336;28;20028;-61
2022/05/29 01:57:14;;;;;;;8.05;2.38;;;16.50;55.70;;;;;;5063184;28;20025;-60
2022/05/29 01:59:49;;;;;;;4.82;2.38;;;16.60;55.80;;;;;;5082352;28;20493;-60
2022/05/29 02:02:20;;;;;;;6.05;2.28;;;16.60;55.50;;;;;;5064166;28;20385;-62
2022/05/29 02:04:49;;;;;;;5.13;2.40;;;16.60;55.50;;;;;;5081775;28;20016;-62
2022/05/29 02:10:16;;;;;;;6.20;2.95;;;16.60;55.60;;;;;;5083558;28;20032;-61
2022/05/29 02:12:59;;;;;;;7.05;2.50;;;16.60;55.60;;;;;;5082623;28;20135;-61
2022/05/29 02:15:56;;;;;;;5.57;2.35;;;16.60;55.70;;;;;;5063519;28;20021;-59
2022/05/29 02:18:36;;;;;;;4.88;2.30;;;16.50;55.80;;;;;;5077461;28;20062;-60
2022/05/29 02:21:10;;;;;;;5.05;2.25;;;16.40;56.10;;;;;;5081048;28;20529;-61
2022/05/29 02:23:43;;;;;;;7.28;2.20;;;16.30;56.20;;;;;;5081812;28;20465;-62
2022/05/29 02:26:13;;;;;;;6.43;2.17;;;16.20;56.40;;;;;;5081971;28;20009;-61
2022/05/29 02:28:42;;;;;;;5.85;2.35;;;16.10;56.50;;;;;;5064250;28;20477;-61
2022/05/29 02:31:32;;;;;;;6.57;2.15;;;16.10;56.60;;;;;;5050335;28;20024;-62
2022/05/29 02:34:13;;;;;;;4.30;2.10;;;16.10;56.80;;;;;;5082537;28;20073;-61
2022/05/29 02:37:15;;;;;;;4.03;2.20;;;16.00;56.80;;;;;;5081371;28;20032;-60
2022/05/29 02:39:43;;;;;;;5.43;2.17;;;15.90;57.20;;;;;;5048420;28;20039;-61
2022/05/29 02:42:24;;;;;;;6.47;1.83;;;15.80;57.10;;;;;;5082521;28;20069;-61
2022/05/29 02:45:05;;;;;;;6.07;2.30;;;15.80;57.40;;;;;;5081352;28;20041;-61
2022/05/29 02:47:41;;;;;;;3.10;1.92;;;15.70;57.70;;;;;;5082705;28;20020;-60
2022/05/29 02:50:12;;;;;;;7.18;2.47;;;15.60;58.00;;;;;;5081190;28;20021;-61
2022/05/29 02:52:38;;;;;;;3.97;1.90;;;15.50;58.00;;;;;;5081813;28;20095;-62
2022/05/29 02:55:04;;;;;;;4.68;2.20;;;15.60;58.10;;;;;;5082367;28;20112;-62
2022/05/29 02:57:30;;;;;;;7.57;2.05;;;15.50;58.20;;;;;;5081255;28;20025;-60
2022/05/29 03:00:03;;;;;;;4.75;2.00;;;15.50;58.40;;;;;;5082010;28;20035;-62
2022/05/29 03:02:49;;;;;;;6.18;2.30;;;15.40;58.60;;;;;;5081344;28;20020;-60
2022/05/29 03:05:46;;;;;;;4.78;2.00;;;15.40;58.60;;;;;;5057882;28;20367;-61
2022/05/29 03:08:43;;;;;;;4.25;2.03;;;15.50;58.50;;;;;;5081479;28;20077;-61
2022/05/29 03:11:39;;;;;;;3.25;1.95;;;15.50;58.30;;;;;;5081118;28;20024;-62
2022/05/29 03:14:26;;;;;;;5.60;2.10;;;15.40;58.40;;;;;;5081492;28;20064;-61
2022/05/29 03:17:13;;;;;;;6.88;2.00;;;15.50;58.20;;;;;;5060166;28;20120;-62
2022/05/29 03:19:42;;;;;;;3.90;2.00;;;15.50;58.20;;;;;;5077157;28;20024;-61
2022/05/29 03:22:22;;;;;;;6.25;2.05;;;15.60;58.10;;;;;;5080380;28;20512;-62
2022/05/29 03:24:57;;;;;;;4.45;2.25;;;15.60;58.30;;;;;;5079059;28;20016;-61
2022/05/29 03:27:35;;;;;;;6.95;2.25;;;15.60;58.10;;;;;;5083903;28;20016;-63
2022/05/29 03:30:20;;;;;;;6.07;2.08;;;15.70;58.00;;;;;;5081950;28;20024;-62
2022/05/29 03:32:49;;;;;;;3.95;2.03;;;15.80;57.80;;;;;;5080676;28;20024;-62
2022/05/29 03:35:34;;;;;;;5.40;2.20;;;15.80;57.70;;;;;;5083341;28;20029;-62
2022/05/29 03:38:04;;;;;;;5.28;2.05;;;15.90;57.70;;;;;;5057840;28;20031;-62
2022/05/29 03:40:32;;;;;;;4.97;2.13;;;15.90;57.60;;;;;;5085231;28;20069;-61
2022/05/29 03:42:58;;;;;;;4.03;2.13;;;15.80;57.60;;;;;;5086121;28;20016;-62
2022/05/29 03:45:24;;;;;;;7.07;2.30;;;15.80;57.80;;;;;;5085354;28;20124;-61
2022/05/29 03:47:49;;;;;;;6.03;2.10;;;15.80;57.90;;;;;;5066386;28;20111;-62
2022/05/29 03:50:17;;;;;;;6.63;1.98;;;15.80;58.00;;;;;;5084488;28;20469;-61
2022/05/29 03:52:44;;;;;;;5.65;2.30;;;15.90;57.90;;;;;;5086900;28;20032;-61
2022/05/29 03:55:11;;;;;;;5.00;2.00;;;15.90;57.70;;;;;;5084258;28;20029;-61
2022/05/29 03:57:37;;;;;;;5.53;2.10;;;16.10;57.50;;;;;;5085679;28;20358;-61
2022/05/29 04:00:09;;;;;;;7.78;2.53;;;16.10;57.30;;;;;;5064504;28;20130;-60
2022/05/29 04:02:35;;;;;;;7.50;2.45;;;16.20;57.30;;;;;;5065866;28;20362;-60
2022/05/29 04:05:01;;;;;;;6.32;2.05;;;16.30;57.10;;;;;;5082921;28;20031;-62
2022/05/29 04:12:58;;;;;;;3.67;2.00;;;16.80;52.70;;;;;;5084981;28;20173;-60
2022/05/29 04:15:24;;;;;;;3.63;1.80;;;16.80;52.20;;;;;;5087500;28;20066;-60
2022/05/29 04:17:50;;;;;;;3.83;1.70;;;16.80;51.60;;;;;;5081971;28;20469;-62
2022/05/29 04:20:16;;;;;;;3.45;1.77;;;16.80;50.80;;;;;;5083668;28;20158;-60
2022/05/29 04:22:42;;;;;;;4.72;1.90;;;16.80;50.80;;;;;;5084364;28;20465;-60
2022/05/29 04:25:08;;;;;;;6.03;2.05;;;16.80;50.90;;;;;;5085114;28;20032;-61
2022/05/29 04:27:34;;;;;;;3.95;2.00;;;16.90;50.60;;;;;;5082998;28;20016;-61
2022/05/29 04:30:00;;;;;;;4.32;1.90;;;17.00;49.90;;;;;;5067435;28;20480;-61
2022/05/29 04:35:10;;;;;;;3.45;1.90;;;17.00;49.70;;;;;;5083666;28;20056;-61
2022/05/29 04:37:36;;;;;;;5.35;2.10;;;17.00;49.60;;;;;;5085063;28;20326;-61
2022/05/29 04:40:03;;;;;;;3.25;1.77;;;17.10;49.40;;;;;;5084667;28;20028;-63
2022/05/29 04:42:28;;;;;;;4.18;1.80;;;17.00;49.40;;;;;;5085285;28;20040;-60
2022/05/29 04:44:55;;;;;;;5.72;1.90;;;17.00;49.50;;;;;;5084092;28;20447;-62
2022/05/29 04:47:21;;;;;;;5.10;2.10;;;17.10;49.30;;;;;;5086510;28;20028;-63
2022/05/29 04:49:47;;;;;;;3.50;1.90;;;17.20;49.20;;;;;;5063293;28;20024;-62
2022/05/29 04:52:12;;;;;;;7.53;2.10;;;17.20;48.40;;;;;;5083831;28;20024;-61
2022/05/29 04:54:39;;;;;;;7.95;2.38;;;17.20;48.20;;;;;;5083059;28;20088;-62
2022/05/29 04:57:07;;;;;;;4.07;2.10;;;17.30;47.80;;;;;;5084309;28;20422;-62
2022/05/29 04:59:33;;;;;;;4.57;2.03;;;17.30;47.60;;;;;;5082932;28;20115;-60
2022/05/29 05:02:00;;;;;;;4.90;2.22;;;17.40;47.60;;;;;;5083892;28;20081;-62
2022/05/29 05:04:26;;;;;;;6.22;2.17;;;17.40;47.70;;;;;;5066392;28;20063;-61
2022/05/29 05:06:59;;;;;;;5.47;2.30;;;17.50;47.50;;;;;;5082158;28;20213;-61
2022/05/29 05:09:26;;;;;;;8.40;2.30;;;17.60;47.20;;;;;;5085265;28;20012;-61
2022/05/29 05:11:53;;;;;;;6.63;2.03;;;17.80;46.70;;;;;;5083637;28;20633;-62
2022/05/29 05:14:20;;;;;;;5.50;2.13;;;17.90;46.10;;;;;;5064540;28;20035;-61
2022/05/29 05:16:47;;;;;;;5.15;2.10;;;17.90;45.60;;;;;;5082389;28;20069;-62
2022/05/29 05:19:14;;;;;;;5.07;2.05;;;18.10;45.10;;;;;;5066858;28;20020;-61
2022/05/29 05:21:40;;;;;;;9.13;2.20;;;18.10;44.90;;;;;;5081317;28;20135;-62
2022/05/29 05:24:06;;;;;;;5.07;2.13;;;18.10;44.90;;;;;;5083479;28;20013;-60
2022/05/29 05:26:32;;;;;;;5.95;3.55;;;18.20;44.60;;;;;;5081501;28;20025;-59
2022/05/29 05:28:59;;;;;;;8.88;1.90;;;18.30;44.50;;;;;;5084390;28;20020;-61
2022/05/29 05:31:25;;;;;;;5.07;2.00;;;18.40;44.00;;;;;;5065580;28;20020;-61
2022/05/29 05:33:51;;;;;;;4.05;1.58;;;18.50;43.50;;;;;;5083914;28;20426;-61
2022/05/29 05:36:17;;;;;;;2.38;1.70;;;18.40;43.50;;;;;;5083091;28;20020;-61
2022/05/29 05:38:43;;;;;;;4.60;1.98;;;18.50;43.70;;;;;;5082543;28;20089;-59
2022/05/29 05:41:10;;;;;;;4.97;2.05;;;18.60;43.60;;;;;;5082181;28;20054;-61
2022/05/29 05:43:35;;;;;;;6.05;2.03;;;18.70;43.20;;;;;;5066380;28;20016;-60
2022/05/29 05:46:05;;;;;;;5.28;2.33;;;18.70;43.00;;;;;;5062951;28;20068;-60
2022/05/29 05:48:31;;;;;;;8.25;1.70;;;18.60;43.00;;;;;;5071023;28;20039;-61
2022/05/29 05:50:57;;;;;;;8.52;2.30;;;18.50;42.90;;;;;;5083097;28;20024;-61
2022/05/29 05:53:24;;;;;;;4.18;1.70;;;18.40;43.10;;;;;;5084004;28;20490;-60
2022/05/29 05:55:50;;;;;;;4.88;1.75;;;18.30;43.00;;;;;;5080346;28;20025;-61
2022/05/29 05:58:16;;;;;;;5.85;2.10;;;18.30;43.10;;;;;;5081457;28;20099;-60
2022/05/29 06:00:46;;;;;;;7.00;1.80;;;18.20;43.30;;;;;;5084624;28;20022;-62
2022/05/29 06:03:11;;;;;;;5.72;1.70;;;18.20;43.00;;;;;;5080469;28;20091;-61
2022/05/29 06:05:37;;;;;;;5.15;1.83;;;18.10;43.30;;;;;;5083529;28;20103;-60
2022/05/29 06:08:03;;;;;;;5.55;1.90;;;18.20;43.50;;;;;;5083046;28;20099;-61
2022/05/29 06:10:29;;;;;;;4.15;1.70;;;18.40;43.10;;;;;;5080899;28;20042;-62
2022/05/29 06:12:56;;;;;;;6.40;1.83;;;18.40;42.70;;;;;;5082116;28;20176;-62
2022/05/29 06:15:21;;;;;;;6.32;1.70;;;18.40;42.90;;;;;;5066921;28;20400;-61
2022/05/29 06:17:47;;;;;;;8.30;2.10;;;18.40;43.10;;;;;;5079976;28;20025;-62
2022/05/29 06:20:13;;;;;;;4.45;1.98;;;18.50;43.00;;;;;;5083671;28;20046;-61
2022/05/29 06:22:41;;;;;;;8.07;3.00;;;18.60;42.60;;;;;;5081131;28;20025;-61
2022/05/29 06:25:07;;;;;;;5.25;2.15;;;18.70;42.40;;;;;;5080759;28;20024;-61
2022/05/29 06:27:38;;;;;;;5.50;1.88;;;18.90;42.20;;;;;;5063281;28;20488;-61
2022/05/29 06:30:07;;;;;;;4.13;1.80;;;19.20;42.00;;;;;;5083010;28;20143;-63
2022/05/29 06:32:34;;;;;;;4.45;1.80;;;19.60;41.30;;;;;;5078479;28;20081;-60
2022/05/29 06:35:00;;;;;;;4.85;1.77;;;20.00;40.70;;;;;;5062347;28;20024;-63
2022/05/29 06:37:26;;;;;;;5.28;1.70;;;20.40;39.90;;;;;;5083863;28;20036;-62
2022/05/29 06:39:52;;;;;;;5.03;1.73;;;20.80;40.10;;;;;;5062661;28;20088;-62
2022/05/29 06:42:17;;;;;;;7.32;1.63;;;21.50;38.70;;;;;;5082076;28;20436;-61
2022/05/29 06:44:43;;;;;;;3.45;1.60;;;22.00;37.40;;;;;;5061527;28;20040;-61
2022/05/29 06:47:09;;;;;;;6.53;1.70;;;22.20;36.90;;;;;;5081786;28;20028;-61
2022/05/29 06:49:36;;;;;;;4.95;2.00;;;22.60;36.60;;;;;;5081336;28;20085;-60
2022/05/29 06:52:10;;;;;;;5.60;1.98;;;22.90;35.90;;;;;;5082947;28;20020;-62
2022/05/29 06:54:36;;;;;;;4.95;2.00;;;23.20;35.20;;;;;;5083126;28;20039;-59
2022/05/29 06:57:05;;;;;;;7.00;2.05;;;23.30;34.80;;;;;;5081244;28;20035;-60
2022/05/29 06:59:31;;;;;;;5.30;2.05;;;23.20;34.70;;;;;;5079970;28;20165;-63
2022/05/29 07:07:25;;;;;;;5.90;2.03;;;22.80;35.70;;;;;;5081296;28;20032;-62
2022/05/29 07:09:50;;;;;;;9.57;2.20;;;22.70;35.90;;;;;;5084656;28;20020;-61
2022/05/29 07:12:27;;;;;;;10.43;2.40;;;22.50;36.30;;;;;;5080077;28;20425;-61
2022/05/29 07:14:58;;;;;;;5.95;2.20;;;22.40;36.70;;;;;;5077871;28;20381;-61
2022/05/29 07:17:24;;;;;;;7.80;2.40;;;22.50;36.80;;;;;;5083239;28;20012;-61
2022/05/29 07:19:49;;;;;;;8.85;2.70;;;22.40;36.50;;;;;;5080754;28;20024;-62
2022/05/29 07:22:16;;;;;;;6.32;2.30;;;22.50;36.40;;;;;;5081468;28;20510;-63
2022/05/29 07:24:43;;;;;;;5.53;2.60;;;22.70;36.60;;;;;;5082681;28;20020;-60
2022/05/29 07:27:09;;;;;;;4.43;2.10;;;22.80;36.40;;;;;;5083191;28;20149;-61
2022/05/29 07:29:35;;;;;;;5.85;2.13;;;22.90;36.10;;;;;;5080544;28;20016;-61
2022/05/29 07:32:02;;;;;;;5.32;2.75;;;23.10;36.30;;;;;;5081712;28;20024;-62
2022/05/29 07:34:28;;;;;;;7.82;2.72;;;23.30;35.70;;;;;;5084102;28;20023;-61
2022/05/29 07:37:01;;;;;;;8.20;3.15;;;23.30;35.00;;;;;;5080289;28;20024;-62
2022/05/29 07:39:27;;;;;;;6.38;2.78;;;23.40;35.40;;;;;;5081191;28;20036;-61
2022/05/29 07:44:37;;;;;;;10.40;2.85;;;25.40;32.70;;;;;;5079109;28;20186;-64
2022/05/29 07:47:22;;;;;;;9.18;2.85;;;25.80;32.10;;;;;;5080344;28;20453;-62
2022/05/29 07:49:48;;;;;;;10.50;2.70;;;26.00;31.40;;;;;;5084769;28;20024;-63
2022/05/29 07:52:14;;;;;;;9.07;2.40;;;26.00;31.40;;;;;;5061045;28;20414;-62
2022/05/29 07:54:40;;;;;;;7.05;1.90;;;25.80;30.70;;;;;;5083656;28;20026;-62
2022/05/29 07:57:06;;;;;;;7.18;2.15;;;25.00;30.20;;;;;;5082456;28;20150;-62
2022/05/29 07:59:32;;;;;;;4.80;1.70;;;24.50;31.30;;;;;;5085952;28;20461;-61
2022/05/29 08:01:57;;;;;;;3.10;1.30;;;24.50;32.00;;;;;;5081885;28;20021;-62
2022/05/29 08:04:23;;;;;;;3.75;1.45;;;24.60;30.00;;;;;;5083220;28;20554;-62
2022/05/29 08:06:49;;;;;;;3.63;1.73;;;24.50;28.90;;;;;;5058930;28;20184;-61
2022/05/29 08:09:15;;;;;;;5.18;1.40;;;24.00;29.20;;;;;;5067607;28;20488;-61
2022/05/29 08:11:41;;;;;;;6.50;1.80;;;23.70;29.50;;;;;;5078746;28;20028;-62
2022/05/29 08:14:06;;;;;;;7.43;1.52;;;23.40;29.90;;;;;;5082834;28;20024;-60
2022/05/29 08:16:33;;;;;;;4.05;1.50;;;23.10;30.10;;;;;;5083794;28;20020;-61
2022/05/29 08:18:58;;;;;;;4.43;1.40;;;22.90;30.60;;;;;;5081838;28;20020;-61
2022/05/29 08:21:24;;;;;;;4.97;1.30;;;22.80;31.00;;;;;;5063958;28;20388;-63
2022/05/29 08:32:03;;;;;;;;;;;22.30;31.90;;;;;;5083225;28;20035;-63
2022/05/29 08:34:28;;;;;;;2.63;1.27;;;22.10;31.80;;;;;;5068265;28;19912;-60
2022/05/29 08:36:55;;;;;;;7.82;1.90;;;22.00;31.90;;;;;;5084983;28;20381;-61
2022/05/29 08:39:22;;;;;;;5.80;1.95;;;22.10;31.50;;;;;;5086350;28;20056;-62
2022/05/29 08:41:52;;;;;;;4.75;1.85;;;22.10;30.90;;;;;;5065504;28;20143;-61
2022/05/29 08:44:29;;;;;;;4.13;1.92;;;22.30;31.00;;;;;;5083740;28;20048;-61
2022/05/29 08:47:00;;;;;;;4.63;1.42;;;22.70;31.10;;;;;;5084987;28;20016;-62
2022/05/29 08:49:31;;;;;;;4.20;1.83;;;23.00;30.50;;;;;;5086915;28;20024;-63
2022/05/29 08:52:09;;;;;;;6.47;1.90;;;23.10;30.40;;;;;;5080576;28;20024;-62
2022/05/29 08:54:50;;;;;;;3.20;1.60;;;23.20;30.30;;;;;;5061147;28;20028;-61
2022/05/29 08:57:40;;;;;;;5.18;1.60;;;23.40;30.30;;;;;;5081572;28;20024;-62
2022/05/29 09:00:51;;;;;;;5.43;1.80;;;23.60;29.30;;;;;;5069566;28;20040;-62
2022/05/29 09:03:36;;;;;;;5.13;1.50;;;23.60;29.40;;;;;;5058831;28;20036;-62
2022/05/29 09:06:35;;;;;;;4.55;1.67;;;23.60;29.20;;;;;;5084891;28;20051;-60
2022/05/29 09:09:16;;;;;;;7.03;2.05;;;23.60;29.20;;;;;;5082558;28;20016;-63
2022/05/29 09:11:54;;;;;;;4.45;1.70;;;23.60;29.30;;;;;;5083713;28;20099;-62
2022/05/29 09:17:25;;;;;;;3.80;1.40;;;23.20;29.60;;;;;;5083757;28;20078;-62
2022/05/29 09:20:00;;;;;;;6.25;1.92;;;23.20;29.90;;;;;;5064742;28;20199;-61
2022/05/29 09:22:30;;;;;;;6.90;2.35;;;22.90;30.00;;;;;;5067916;28;20116;-62
2022/05/29 09:25:23;;;;;;;8.18;2.05;;;22.50;30.60;;;;;;5082787;28;20023;-63
2022/05/29 09:27:49;;;;;;;4.18;1.80;;;22.40;30.90;;;;;;5082013;28;20016;-62
2022/05/29 09:30:16;;;;;;;6.00;1.65;;;22.30;31.10;;;;;;5065206;28;20016;-62
2022/05/29 09:32:49;;;;;;;6.53;1.92;;;22.40;31.40;;;;;;5083251;28;20070;-63
2022/05/29 09:35:24;;;;;;;8.38;1.80;;;22.40;31.10;;;;;;5083744;28;20016;-61
2022/05/29 09:37:59;;;;;;;5.47;1.88;;;22.20;31.20;;;;;;5081692;28;20024;-61
2022/05/29 09:40:33;;;;;;;5.50;2.05;;;21.90;31.80;;;;;;5077179;28;20156;-62
2022/05/29 09:43:17;;;;;;;4.22;1.65;;;21.90;32.10;;;;;;5080382;28;20024;-64
2022/05/29 09:45:44;;;;;;;9.00;1.90;;;22.00;32.10;;;;;;5056583;28;20071;-62
2022/05/29 09:51:10;;;;;;;4.47;1.77;;;22.10;32.00;;;;;;5078207;28;20074;-61
2022/05/29 09:53:47;;;;;;;4.45;1.80;;;22.20;32.10;;;;;;5068437;28;20024;-60
2022/05/29 09:56:14;;;;;;;6.40;1.92;;;22.30;32.00;;;;;;5076275;28;20130;-63
2022/05/29 09:58:50;;;;;;;6.40;1.70;;;22.40;31.80;;;;;;5057514;28;20081;-62
2022/05/29 10:01:29;;;;;;;7.70;2.00;;;22.40;31.70;;;;;;5062029;28;20027;-60
2022/05/29 10:03:58;;;;;;;6.80;1.70;;;22.40;31.50;;;;;;5060775;28;20024;-61
2022/05/29 10:06:30;;;;;;;6.93;2.10;;;22.30;31.80;;;;;;5074795;28;20442;-61
2022/05/29 10:09:24;;;;;;;5.40;2.38;;;22.10;31.80;;;;;;5064369;28;20845;-62
2022/05/29 10:11:58;;;;;;;6.05;2.72;;;22.20;32.10;;;;;;5072889;28;20295;-64
2022/05/29 10:14:41;;;;;;;6.40;2.20;;;22.10;31.90;;;;;;5077166;28;20052;-61
2022/05/29 10:17:15;;;;;;;4.95;2.08;;;21.90;32.00;;;;;;5078106;28;20031;-62
2022/05/29 10:19:46;;;;;;;8.00;2.20;;;21.60;32.50;;;;;;5077890;28;20016;-61
2022/05/29 10:22:23;;;;;;;5.00;1.92;;;21.60;32.80;;;;;;5081650;28;20119;-63
2022/05/29 10:24:50;;;;;;;5.72;1.88;;;21.70;32.90;;;;;;5055735;28;20027;-62
2022/05/29 10:27:30;;;;;;;3.58;1.70;;;21.60;32.80;;;;;;5074869;28;20016;-61
2022/05/29 10:30:02;;;;;;;7.22;1.50;;;21.50;33.00;;;;;;5060205;28;20016;-61
2022/05/29 10:32:33;;;;;;;3.97;1.92;;;21.50;33.00;;;;;;5057546;28;20024;-59
2022/05/29 10:35:25;;;;;;;4.88;1.83;;;21.40;33.30;;;;;;5078861;28;20473;-63
2022/05/29 10:37:53;;;;;;;5.13;1.90;;;21.40;33.60;;;;;;5079744;28;20016;-62
2022/05/29 10:40:33;;;;;;;9.10;2.00;;;21.50;34.00;;;;;;5078996;28;20473;-61
2022/05/29 10:43:03;;;;;;;7.95;2.40;;;21.50;34.60;;;;;;5074560;28;20442;-63
2022/05/29 10:46:02;;;;;;;5.97;2.10;;;21.60;35.00;;;;;;5080791;28;20048;-62
2022/05/29 10:48:43;;;;;;;9.43;2.05;;;21.80;35.20;;;;;;5080626;28;20032;-62
2022/05/29 10:51:18;;;;;;;4.53;1.73;;;22.10;35.50;;;;;;5055077;28;20025;-63
2022/05/29 10:53:50;;;;;;;5.03;1.95;;;22.30;33.60;;;;;;5074711;28;20032;-60
2022/05/29 10:56:25;;;;;;;7.00;2.10;;;22.70;34.00;;;;;;5076376;28;20017;-60
2022/05/29 10:58:53;;;;;;;7.35;2.92;;;23.10;33.70;;;;;;5079775;28;20019;-62
2022/05/29 11:04:34;;;;;;;3.42;1.52;;;23.10;33.60;;;;;;5077587;28;20043;-62
2022/05/29 11:07:12;;;;;;;4.55;1.80;;;22.70;32.60;;;;;;5076618;28;20421;-62
2022/05/29 11:09:46;;;;;;;5.28;1.80;;;22.50;32.70;;;;;;5078530;28;20526;-60
2022/05/29 11:12:31;;;;;;;4.63;2.00;;;22.50;32.60;;;;;;5071664;28;20032;-61
2022/05/29 11:15:21;;;;;;;4.10;1.90;;;22.70;32.10;;;;;;5052625;28;20052;-61
2022/05/29 11:18:20;;;;;;;6.40;2.05;;;22.80;31.70;;;;;;5074982;28;20031;-61
2022/05/29 11:21:07;;;;;;;6.72;2.33;;;22.80;31.40;;;;;;5075931;28;20057;-62
2022/05/29 11:24:00;;;;;;;5.55;2.25;;;22.70;31.20;;;;;;5074791;28;20077;-62
2022/05/29 11:26:48;;;;;;;6.18;1.85;;;22.80;31.10;;;;;;5081232;28;20035;-62
2022/05/29 11:29:14;;;;;;;4.20;1.90;;;22.90;30.60;;;;;;5079372;28;20293;-64
2022/05/29 11:31:42;;;;;;;4.10;1.48;;;22.90;30.40;;;;;;5078626;28;20099;-63
2022/05/29 11:34:28;;;;;;;5.00;1.83;;;22.90;30.50;;;;;;5072584;28;20050;-62
2022/05/29 11:37:23;;;;;;;5.60;1.90;;;23.00;30.70;;;;;;5058996;28;20104;-63
2022/05/29 11:39:54;;;;;;;3.42;1.48;;;23.50;30.00;;;;;;5075182;28;20064;-60
2022/05/29 11:42:27;;;;;;;5.82;1.70;;;23.90;29.70;;;;;;5073570;28;20036;-62
2022/05/29 11:45:05;;;;;;;3.60;1.60;;;24.20;29.50;;;;;;5080111;28;20060;-63
2022/05/29 11:53:20;;;;;;;3.53;1.65;;;23.60;29.80;;;;;;5078244;28;20039;-63
2022/05/29 11:55:48;;;;;;;3.53;1.60;;;23.00;30.60;;;;;;5076561;28;20107;-62
2022/05/29 11:58:24;;;;;;;4.55;1.90;;;22.80;31.20;;;;;;5077609;28;20037;-62
2022/05/29 12:01:01;;;;;;;4.63;1.77;;;22.80;31.80;;;;;;5084801;28;20094;-62
2022/05/29 12:03:32;;;;;;;7.45;1.98;;;23.10;31.40;;;;;;5073088;28;20388;-63
2022/05/29 12:06:07;;;;;;;6.30;1.85;;;23.20;31.30;;;;;;5066934;28;20031;-63
2022/05/29 12:08:48;;;;;;;9.93;1.70;;;23.50;30.80;;;;;;5067654;28;20016;-65
2022/05/29 12:11:32;;;;;;;4.25;1.70;;;23.70;29.90;;;;;;5066762;28;20029;-63
2022/05/29 12:14:07;;;;;;;4.50;2.00;;;23.40;30.10;;;;;;5086614;28;20587;-64
2022/05/29 12:16:35;;;;;;;6.28;1.88;;;23.20;30.60;;;;;;5085370;28;20032;-62
2022/05/29 12:19:15;;;;;;;5.97;1.80;;;23.10;30.90;;;;;;5083355;28;20074;-64
2022/05/29 12:21:52;;;;;;;7.53;1.70;;;22.90;30.90;;;;;;5084657;28;20089;-62
2022/05/29 12:24:28;;;;;;;4.60;1.90;;;22.70;30.80;;;;;;5065237;28;20051;-63
2022/05/29 12:27:24;;;;;;;3.85;1.50;;;22.60;31.60;;;;;;5083066;28;20100;-63
2022/05/29 12:30:01;;;;;;;6.22;2.22;;;22.50;31.50;;;;;;5084308;28;20453;-65
2022/05/29 12:32:34;;;;;;;6.63;1.42;;;22.40;31.90;;;;;;5067105;28;20054;-63
2022/05/29 12:35:05;;;;;;;6.43;1.75;;;22.30;32.00;;;;;;5083221;28;20023;-64
2022/05/29 12:38:08;;;;;;;3.30;1.50;;;22.20;32.40;;;;;;5083295;28;20036;-64
2022/05/29 12:40:55;;;;;;;6.88;1.83;;;22.10;33.00;;;;;;5083806;28;20488;-64
2022/05/29 12:43:55;;;;;;;5.50;1.52;;;22.00;33.10;;;;;;5081572;28;20469;-64
2022/05/29 12:46:41;;;;;;;3.10;1.33;;;21.80;33.20;;;;;;5082685;28;20042;-63
2022/05/29 12:49:45;;;;;;;4.75;1.77;;;21.70;33.10;;;;;;5066896;28;20043;-63
2022/05/29 12:52:13;;;;;;;6.15;3.05;;;21.70;33.30;;;;;;5051404;28;20255;-64
2022/05/29 12:54:54;;;;;;;6.13;2.90;;;21.60;33.50;;;;;;5084963;28;20016;-61
2022/05/29 12:58:00;;;;;;;5.03;2.33;;;21.60;35.80;;;;;;5084822;28;20059;-64
2022/05/29 13:00:47;;;;;;;5.00;2.13;;;21.50;37.80;;;;;;5083325;28;20131;-63
2022/05/29 13:03:16;;;;;;;4.32;2.13;;;21.20;38.50;;;;;;5084879;28;20017;-63
2022/05/29 13:05:58;;;;;;;5.20;2.08;;;21.10;38.40;;;;;;5070594;28;20449;-63
2022/05/29 13:08:50;;;;;;;3.15;1.83;;;21.00;38.30;;;;;;5084481;28;20024;-63
2022/05/29 13:11:20;;;;;;;6.82;2.05;;;20.70;38.90;;;;;;5080824;28;20039;-63
2022/05/29 13:13:47;;;;;;;7.75;3.50;;;20.60;39.80;;;;;;5083154;28;20150;-63
2022/05/29 13:16:25;;;;;;;5.13;2.83;;;20.50;41.00;;;;;;5083727;28;20016;-63
2022/05/29 13:21:57;;;;;;;4.75;2.13;;;20.40;42.60;;;;;;5084542;28;20028;-64
2022/05/29 13:24:26;;;;;;;7.43;2.20;;;20.40;42.10;;;;;;5083980;28;20047;-63
2022/05/29 13:27:11;;;;;;;6.32;1.80;;;20.30;41.60;;;;;;5083229;28;20024;-63
2022/05/29 13:29:40;;;;;;;6.72;2.00;;;20.30;41.40;;;;;;5084643;28;20020;-63
2022/05/29 13:32:15;;;;;;;5.40;1.92;;;20.30;41.20;;;;;;5082996;28;20024;-62
2022/05/29 13:34:46;;;;;;;7.35;2.25;;;20.30;41.80;;;;;;5066802;28;20030;-61
2022/05/29 13:37:30;;;;;;;6.60;2.67;;;20.40;42.50;;;;;;5064079;28;20028;-62
2022/05/29 13:40:08;;;;;;;6.15;2.10;;;20.60;42.80;;;;;;5084260;28;20042;-63
2022/05/29 13:42:38;;;;;;;6.25;2.70;;;20.80;42.10;;;;;;5085687;28;20034;-63
2022/05/29 13:45:19;;;;;;;6.18;2.58;;;21.00;42.20;;;;;;5081736;28;20116;-64
2022/05/29 13:47:47;;;;;;;6.72;2.90;;;20.80;42.30;;;;;;5080979;28;20102;-61
2022/05/29 13:50:13;;;;;;;4.95;1.92;;;20.80;42.40;;;;;;5083074;28;20020;-63
2022/05/29 13:53:00;;;;;;;5.72;2.20;;;20.80;42.30;;;;;;5084077;28;20015;-63
2022/05/29 13:55:57;;;;;;;11.82;2.25;;;20.70;42.90;;;;;;5065525;28;20129;-62
2022/05/29 14:04:43;;;;;;;7.75;2.50;;;20.00;44.10;;;;;;5082112;28;20116;-65
2022/05/29 14:07:08;;;;;;;7.88;1.95;;;19.70;44.60;;;;;;5083692;28;20489;-65
2022/05/29 14:09:34;;;;;;;16.92;2.60;;;19.70;45.00;;;;;;5084101;28;20016;-64
2022/05/29 14:12:01;;;;;;;5.22;2.72;;;19.70;45.10;;;;;;5081415;28;20024;-64